Time;durP1;ratioP1;P1;durP2;ratioP2;P2;SDS_P1;SDS_P2;PMS_P1;PMS_P2;Temp;Humidity;BMP_temperature;BMP_pressure;BME280_temperature;BME280_humidity;BME280_pressure;Samples;Min_cycle;Max_cycle;Signal;HPM_P1;HPM_P2
2023/05/07 00:01:35;;;;;;;4.93;4.43;;;15.00;99.90;;;;;;5009567;28;20186;-68
2023/05/07 00:04:02;;;;;;;6.00;4.53;;;14.90;99.90;;;;;;5026576;28;20272;-66
2023/05/07 00:06:28;;;;;;;6.68;4.63;;;14.90;99.90;;;;;;5024152;28;20231;-66
2023/05/07 00:08:54;;;;;;;7.50;5.28;;;14.80;99.90;;;;;;5027906;28;20675;-68
2023/05/07 00:11:20;;;;;;;5.60;4.70;;;14.90;99.90;;;;;;5026303;28;20217;-68
2023/05/07 00:13:47;;;;;;;6.00;4.20;;;14.80;99.90;;;;;;5027064;28;20220;-68
2023/05/07 00:16:13;;;;;;;4.75;4.35;;;14.90;99.90;;;;;;5025399;28;20201;-68
2023/05/07 00:18:38;;;;;;;4.70;4.30;;;15.00;99.90;;;;;;5026948;28;20174;-68
2023/05/07 00:21:04;;;;;;;4.17;3.87;;;15.00;99.90;;;;;;5023343;28;20288;-68
2023/05/07 00:23:29;;;;;;;5.37;4.43;;;14.80;99.90;;;;;;5027641;28;20467;-68
2023/05/07 00:25:56;;;;;;;4.73;4.33;;;14.80;99.90;;;;;;5026608;28;20380;-68
2023/05/07 00:28:21;;;;;;;4.63;4.22;;;14.70;99.90;;;;;;5026881;28;20226;-68
2023/05/07 00:30:47;;;;;;;4.40;4.00;;;14.70;99.90;;;;;;5027015;28;20233;-68
2023/05/07 00:33:12;;;;;;;5.03;4.60;;;14.40;99.90;;;;;;5025319;28;20206;-68
2023/05/07 00:35:38;;;;;;;4.27;3.87;;;14.70;99.90;;;;;;5009384;28;20293;-68
2023/05/07 00:38:04;;;;;;;4.17;3.77;;;14.70;99.90;;;;;;5023048;28;20186;-68
2023/05/07 00:40:29;;;;;;;4.77;4.37;;;14.60;99.90;;;;;;5027152;28;20214;-68
2023/05/07 00:42:57;;;;;;;4.90;4.40;;;14.40;99.90;;;;;;5026272;28;20186;-68
2023/05/07 00:45:27;;;;;;;4.93;4.53;;;14.50;99.90;;;;;;5026449;28;20571;-68
2023/05/07 00:47:57;;;;;;;4.13;3.83;;;14.50;99.90;;;;;;5026146;28;20193;-68
2023/05/07 00:50:23;;;;;;;4.72;4.30;;;14.60;99.90;;;;;;5025980;28;20213;-68
2023/05/07 00:52:49;;;;;;;4.40;4.00;;;14.50;99.90;;;;;;5025957;28;20178;-68
2023/05/07 00:55:14;;;;;;;5.83;4.23;;;14.60;99.90;;;;;;5026867;28;20464;-68
2023/05/07 00:57:41;;;;;;;4.77;4.30;;;14.70;99.90;;;;;;5027470;28;20433;-68
2023/05/07 01:00:08;;;;;;;5.45;3.85;;;14.50;99.90;;;;;;5024588;28;20206;-68
2023/05/07 01:02:35;;;;;;;4.25;3.85;;;14.60;99.90;;;;;;5025204;28;20190;-68
2023/05/07 01:05:04;;;;;;;4.35;3.95;;;14.30;99.90;;;;;;5024069;28;20186;-68
2023/05/07 01:07:32;;;;;;;4.68;4.20;;;14.60;99.90;;;;;;5043680;23;20229;-70
2023/05/07 01:09:58;;;;;;;9.70;4.18;;;14.30;99.90;;;;;;5039789;28;20205;-69
2023/05/07 01:12:25;;;;;;;4.18;3.88;;;14.60;99.90;;;;;;5028484;28;20186;-70
2023/05/07 01:14:50;;;;;;;4.10;3.75;;;14.30;99.90;;;;;;5021677;28;20245;-70
2023/05/07 01:17:17;;;;;;;6.50;4.17;;;14.40;99.90;;;;;;5009518;28;20650;-69
2023/05/07 01:19:43;;;;;;;4.70;3.97;;;14.60;99.90;;;;;;5028120;28;20300;-70
2023/05/07 01:22:15;;;;;;;4.03;3.72;;;14.50;99.90;;;;;;5026519;28;20182;-69
2023/05/07 01:24:41;;;;;;;5.20;4.07;;;14.10;99.90;;;;;;5028340;28;20505;-70
2023/05/07 01:27:07;;;;;;;4.80;4.30;;;14.20;99.90;;;;;;5028052;28;20275;-69
2023/05/07 01:29:32;;;;;;;4.33;4.00;;;14.50;99.90;;;;;;5026932;28;20210;-70
2023/05/07 01:32:00;;;;;;;4.60;4.20;;;14.40;99.90;;;;;;5028704;28;20274;-69
2023/05/07 01:34:28;;;;;;;3.78;3.47;;;14.60;99.90;;;;;;5027944;28;20194;-69
2023/05/07 01:36:55;;;;;;;4.40;4.00;;;14.30;99.90;;;;;;5029482;28;20190;-69
2023/05/07 01:39:24;;;;;;;4.20;3.90;;;14.40;99.90;;;;;;5009394;28;20275;-69
2023/05/07 01:41:50;;;;;;;4.43;4.13;;;14.40;99.90;;;;;;5031137;28;20174;-69
2023/05/07 01:44:18;;;;;;;5.67;5.00;;;14.30;99.90;;;;;;5029216;28;20248;-70
2023/05/07 01:46:43;;;;;;;5.00;4.50;;;14.10;99.90;;;;;;5027315;28;20452;-70
2023/05/07 01:49:09;;;;;;;4.97;4.10;;;14.10;99.90;;;;;;5014733;28;20182;-69
2023/05/07 01:51:36;;;;;;;4.67;4.27;;;14.30;99.90;;;;;;5026408;28;20210;-69
2023/05/07 01:54:01;;;;;;;3.78;3.47;;;14.10;99.90;;;;;;5031438;28;20534;-69
2023/05/07 01:56:27;;;;;;;4.80;4.00;;;14.30;99.90;;;;;;5026270;28;20263;-70
2023/05/07 01:58:52;;;;;;;4.90;4.40;;;14.10;99.90;;;;;;5028689;28;20629;-70
2023/05/07 02:01:18;;;;;;;5.10;4.70;;;14.20;99.90;;;;;;5009217;28;20209;-70
2023/05/07 02:03:44;;;;;;;5.30;4.80;;;14.00;99.90;;;;;;5009644;28;20178;-69
2023/05/07 02:06:10;;;;;;;4.27;3.90;;;14.10;99.90;;;;;;5024872;28;20268;-70
2023/05/07 02:08:35;;;;;;;8.53;4.37;;;14.10;99.90;;;;;;5014884;28;20957;-70
2023/05/07 02:11:01;;;;;;;7.63;4.67;;;14.10;99.90;;;;;;5030347;28;20625;-70
2023/05/07 02:13:30;;;;;;;4.43;4.03;;;13.70;99.90;;;;;;5027757;28;20252;-70
2023/05/07 02:15:55;;;;;;;5.25;4.75;;;14.10;99.90;;;;;;5025686;28;20441;-69
2023/05/07 02:18:21;;;;;;;4.73;4.33;;;14.00;99.90;;;;;;5010402;28;20194;-69
2023/05/07 02:20:47;;;;;;;4.63;4.23;;;14.00;99.90;;;;;;5026909;28;20306;-69
2023/05/07 02:23:12;;;;;;;4.90;4.40;;;14.10;99.90;;;;;;5026261;28;20188;-70
2023/05/07 02:25:38;;;;;;;5.60;5.10;;;14.00;99.90;;;;;;5029154;28;20190;-69
2023/05/07 02:28:03;;;;;;;6.30;4.30;;;13.80;99.90;;;;;;5008205;28;20186;-69
2023/05/07 02:30:29;;;;;;;5.00;4.60;;;13.80;99.90;;;;;;5029571;28;20241;-69
2023/05/07 02:32:55;;;;;;;4.87;4.17;;;13.90;99.90;;;;;;5026438;28;20197;-70
2023/05/07 02:35:20;;;;;;;4.90;4.40;;;14.00;99.90;;;;;;5027177;28;20274;-69
2023/05/07 02:37:46;;;;;;;4.53;4.13;;;13.80;99.90;;;;;;5028887;28;20190;-70
2023/05/07 02:40:12;;;;;;;4.80;4.50;;;13.70;99.90;;;;;;5028019;28;20217;-70
2023/05/07 02:42:37;;;;;;;4.87;4.40;;;13.80;99.90;;;;;;5008005;28;20214;-69
2023/05/07 02:45:03;;;;;;;4.60;4.20;;;13.80;99.90;;;;;;5027602;28;20450;-69
2023/05/07 02:47:29;;;;;;;4.60;4.10;;;14.10;99.90;;;;;;5027384;28;20190;-69
2023/05/07 02:49:55;;;;;;;6.40;4.07;;;14.00;99.90;;;;;;5028802;28;20638;-70
2023/05/07 02:52:21;;;;;;;7.85;4.70;;;14.10;99.90;;;;;;5024370;28;20196;-70
2023/05/07 02:54:47;;;;;;;4.45;4.15;;;13.90;99.90;;;;;;5029393;28;20189;-70
2023/05/07 02:57:12;;;;;;;5.23;4.47;;;13.90;99.90;;;;;;5029228;28;20190;-69
2023/05/07 02:59:38;;;;;;;4.53;4.20;;;13.60;99.90;;;;;;5027060;28;20218;-69
2023/05/07 03:02:03;;;;;;;4.23;3.87;;;13.60;99.90;;;;;;5026781;28;20194;-69
2023/05/07 03:04:29;;;;;;;4.90;4.50;;;13.70;99.90;;;;;;5026064;28;20191;-70
2023/05/07 03:06:55;;;;;;;6.10;5.50;;;13.60;99.90;;;;;;5024264;28;20194;-69
2023/05/07 03:09:21;;;;;;;4.23;3.93;;;13.70;99.90;;;;;;5009879;28;20608;-70
2023/05/07 03:11:46;;;;;;;4.30;4.00;;;13.10;99.90;;;;;;5025746;28;20187;-70
2023/05/07 03:14:12;;;;;;;4.77;4.37;;;13.80;99.90;;;;;;5023703;28;21387;-70
2023/05/07 03:16:38;;;;;;;5.20;4.50;;;13.60;99.90;;;;;;5025358;28;20572;-70
2023/05/07 03:19:03;;;;;;;4.85;4.45;;;13.40;99.90;;;;;;5010418;28;20248;-69
2023/05/07 03:21:30;;;;;;;4.80;4.40;;;13.50;99.90;;;;;;5006142;28;20241;-70
2023/05/07 03:23:56;;;;;;;4.78;4.25;;;13.30;99.90;;;;;;5025395;28;20555;-69
2023/05/07 03:26:21;;;;;;;4.03;3.73;;;14.00;99.90;;;;;;5026537;28;20185;-70
2023/05/07 03:28:47;;;;;;;4.57;3.50;;;13.50;99.90;;;;;;5008683;28;20187;-70
2023/05/07 03:31:13;;;;;;;4.80;3.90;;;13.20;99.90;;;;;;5008179;28;20461;-70
2023/05/07 03:33:55;;;;;;;4.60;4.20;;;13.50;99.90;;;;;;5027522;28;20178;-69
2023/05/07 03:36:21;;;;;;;4.82;4.43;;;13.50;99.90;;;;;;5025759;28;20946;-69
2023/05/07 03:38:48;;;;;;;5.22;4.68;;;13.10;99.90;;;;;;5008510;28;20849;-69
2023/05/07 03:41:14;;;;;;;5.15;4.65;;;13.10;99.90;;;;;;5023954;28;20210;-70
2023/05/07 03:43:39;;;;;;;4.60;4.20;;;13.60;99.90;;;;;;5009103;28;20182;-69
2023/05/07 03:46:05;;;;;;;4.20;3.90;;;13.50;99.90;;;;;;5028073;28;20536;-70
2023/05/07 03:48:31;;;;;;;4.37;4.07;;;13.20;99.90;;;;;;5025998;28;20441;-70
2023/05/07 03:50:57;;;;;;;4.40;4.00;;;13.20;99.90;;;;;;5025842;28;20218;-70
2023/05/07 03:53:23;;;;;;;5.63;4.45;;;13.30;99.90;;;;;;5026695;28;20194;-70
2023/05/07 03:55:49;;;;;;;5.63;4.83;;;13.20;99.90;;;;;;5027467;28;20248;-70
2023/05/07 03:58:15;;;;;;;6.15;4.28;;;13.30;99.90;;;;;;5027007;28;20189;-70
2023/05/07 04:00:41;;;;;;;5.03;4.20;;;13.40;99.90;;;;;;5007863;28;20213;-70
2023/05/07 04:03:07;;;;;;;3.87;3.57;;;13.40;99.90;;;;;;5032135;28;20445;-70
2023/05/07 04:05:32;;;;;;;4.93;4.43;;;13.20;99.90;;;;;;5024307;28;20471;-70
2023/05/07 04:07:59;;;;;;;4.33;4.00;;;13.10;99.90;;;;;;5005323;28;21001;-69
2023/05/07 04:10:25;;;;;;;5.45;4.30;;;13.10;99.90;;;;;;5024621;28;20218;-69
2023/05/07 04:12:50;;;;;;;4.30;3.90;;;13.20;99.90;;;;;;5018204;28;20186;-68
2023/05/07 04:15:16;;;;;;;4.73;4.33;;;13.00;99.90;;;;;;5020302;28;20677;-66
2023/05/07 04:17:42;;;;;;;4.40;4.00;;;13.20;99.90;;;;;;5021622;28;20238;-65
2023/05/07 04:20:14;;;;;;;4.27;3.87;;;13.10;99.90;;;;;;5025847;28;20221;-65
2023/05/07 04:22:39;;;;;;;5.07;4.60;;;13.10;99.90;;;;;;5022953;28;20320;-65
2023/05/07 04:25:05;;;;;;;5.53;4.33;;;13.10;99.90;;;;;;5023905;28;20269;-65
2023/05/07 04:27:32;;;;;;;5.68;4.15;;;12.90;99.90;;;;;;5017082;28;20181;-66
2023/05/07 04:29:57;;;;;;;4.82;4.43;;;12.90;99.90;;;;;;5017815;28;20210;-65
2023/05/07 04:32:24;;;;;;;5.13;4.50;;;13.10;99.90;;;;;;5023917;28;20189;-67
2023/05/07 04:34:50;;;;;;;6.95;4.07;;;13.10;99.90;;;;;;5022873;28;20566;-67
2023/05/07 04:37:16;;;;;;;4.87;4.37;;;13.10;99.90;;;;;;5022644;28;20182;-67
2023/05/07 04:39:41;;;;;;;4.43;4.13;;;13.10;99.90;;;;;;5007929;28;20220;-67
2023/05/07 04:42:08;;;;;;;3.80;3.50;;;13.10;99.90;;;;;;5025049;28;21034;-67
2023/05/07 04:44:36;;;;;;;5.28;4.78;;;12.90;99.90;;;;;;5022723;28;20869;-67
2023/05/07 04:47:02;;;;;;;4.50;4.05;;;12.90;99.90;;;;;;5005682;28;20182;-67
2023/05/07 04:49:28;;;;;;;4.20;3.90;;;13.10;99.90;;;;;;5021702;28;20208;-68
2023/05/07 04:51:53;;;;;;;4.30;3.87;;;13.10;99.90;;;;;;5020817;28;20208;-67
2023/05/07 04:54:19;;;;;;;4.90;4.40;;;13.00;99.90;;;;;;5022168;28;20563;-67
2023/05/07 04:56:45;;;;;;;4.53;4.13;;;13.00;99.90;;;;;;5024055;28;20221;-67
2023/05/07 04:59:10;;;;;;;4.20;3.80;;;12.90;99.90;;;;;;5021555;28;20214;-67
2023/05/07 05:01:37;;;;;;;4.70;4.30;;;12.90;99.90;;;;;;5008174;28;20186;-67
2023/05/07 05:04:02;;;;;;;5.07;3.90;;;13.00;99.90;;;;;;5021987;28;20182;-67
2023/05/07 05:06:29;;;;;;;4.00;3.70;;;12.90;99.90;;;;;;5022820;28;20571;-67
2023/05/07 05:08:55;;;;;;;5.95;4.50;;;13.10;99.90;;;;;;5023215;28;20189;-67
2023/05/07 05:11:21;;;;;;;4.28;3.97;;;13.10;99.90;;;;;;5023418;28;20204;-67
2023/05/07 05:13:49;;;;;;;4.40;4.00;;;13.00;99.90;;;;;;5003262;28;20182;-67
2023/05/07 05:16:15;;;;;;;4.50;4.10;;;12.90;99.90;;;;;;5022921;28;20190;-67
2023/05/07 05:18:40;;;;;;;5.07;4.60;;;13.10;99.90;;;;;;5022947;28;20265;-67
2023/05/07 05:21:06;;;;;;;4.20;3.77;;;13.00;99.90;;;;;;5021382;28;20282;-67
2023/05/07 05:23:32;;;;;;;4.30;3.90;;;13.30;99.90;;;;;;5006938;28;20186;-67
2023/05/07 05:25:58;;;;;;;4.03;3.73;;;13.50;99.90;;;;;;5022583;28;20672;-67
2023/05/07 05:28:24;;;;;;;5.15;4.40;;;13.30;99.90;;;;;;5020903;28;20262;-67
2023/05/07 05:30:50;;;;;;;4.33;4.00;;;13.30;99.90;;;;;;5018061;28;20396;-67
2023/05/07 05:33:16;;;;;;;4.40;4.10;;;13.50;99.90;;;;;;5020469;28;20546;-67
2023/05/07 05:35:41;;;;;;;4.00;3.70;;;13.40;99.90;;;;;;5025592;28;20540;-68
2023/05/07 05:38:07;;;;;;;4.00;3.60;;;13.40;99.90;;;;;;5016349;28;20629;-68
2023/05/07 05:40:33;;;;;;;4.90;3.70;;;13.80;99.90;;;;;;5025102;28;20919;-68
2023/05/07 05:42:59;;;;;;;3.93;3.63;;;14.00;99.90;;;;;;5019988;28;20206;-68
2023/05/07 05:45:25;;;;;;;4.03;3.72;;;14.00;99.90;;;;;;5018633;28;20178;-68
2023/05/07 05:47:50;;;;;;;4.73;4.33;;;14.00;99.90;;;;;;5022928;28;20178;-68
2023/05/07 05:50:16;;;;;;;3.90;3.60;;;14.40;99.90;;;;;;5025014;28;20209;-69
2023/05/07 05:52:41;;;;;;;5.33;4.07;;;14.50;99.90;;;;;;5022881;28;20182;-68
2023/05/07 05:55:08;;;;;;;5.50;4.43;;;14.50;99.90;;;;;;5021093;28;20543;-68
2023/05/07 05:57:33;;;;;;;4.15;3.85;;;15.00;99.90;;;;;;5018885;28;20191;-68
2023/05/07 06:00:00;;;;;;;5.03;4.53;;;15.30;99.90;;;;;;5018205;28;20214;-68
2023/05/07 06:02:26;;;;;;;4.10;3.70;;;15.30;99.90;;;;;;5004049;28;20178;-68
2023/05/07 06:04:51;;;;;;;3.83;3.53;;;15.50;99.90;;;;;;5022437;28;20190;-68
2023/05/07 06:07:17;;;;;;;4.60;4.20;;;15.50;99.90;;;;;;5020889;28;20280;-69
2023/05/07 06:09:42;;;;;;;4.57;4.20;;;15.80;99.90;;;;;;5025511;28;20212;-69
2023/05/07 06:12:08;;;;;;;5.30;4.83;;;16.00;99.90;;;;;;5028531;28;20200;-69
2023/05/07 06:14:34;;;;;;;4.70;4.20;;;16.50;99.90;;;;;;5021263;28;20215;-69
2023/05/07 06:17:02;;;;;;;4.60;4.30;;;16.90;99.90;;;;;;5027821;28;20210;-66
2023/05/07 06:19:28;;;;;;;5.32;4.93;;;17.30;99.90;;;;;;5026940;28;20267;-68
2023/05/07 06:21:55;;;;;;;4.47;4.07;;;17.20;99.90;;;;;;5021065;28;20182;-68
2023/05/07 06:24:21;;;;;;;4.90;4.50;;;17.30;99.90;;;;;;5026662;28;20282;-71
2023/05/07 06:26:47;;;;;;;4.27;3.90;;;17.50;99.90;;;;;;5029159;28;20265;-66
2023/05/07 06:29:12;;;;;;;5.07;4.57;;;17.40;99.90;;;;;;5028386;28;20247;-66
2023/05/07 06:31:38;;;;;;;4.90;4.53;;;17.70;99.90;;;;;;5024177;28;20236;-66
2023/05/07 06:34:04;;;;;;;4.80;4.40;;;17.70;99.90;;;;;;5025527;28;20245;-66
2023/05/07 06:36:30;;;;;;;4.60;4.20;;;17.60;99.90;;;;;;5008142;28;20186;-66
2023/05/07 06:38:56;;;;;;;5.80;5.10;;;17.80;99.90;;;;;;5025434;28;20197;-66
2023/05/07 06:41:21;;;;;;;4.87;4.47;;;17.70;99.90;;;;;;5026326;28;20206;-66
2023/05/07 06:43:47;;;;;;;6.07;5.57;;;17.60;99.90;;;;;;5025953;28;20219;-66
2023/05/07 06:46:13;;;;;;;5.37;4.87;;;18.00;99.90;;;;;;5027946;28;20197;-66
2023/05/07 06:48:38;;;;;;;5.43;4.93;;;17.70;99.90;;;;;;5028758;28;20183;-66
2023/05/07 06:51:04;;;;;;;6.37;5.87;;;17.80;99.90;;;;;;5024820;28;20214;-66
2023/05/07 06:53:30;;;;;;;6.60;6.10;;;17.80;99.90;;;;;;5027157;28;20204;-62
2023/05/07 06:55:56;;;;;;;7.60;5.88;;;18.10;99.90;;;;;;5029073;28;20221;-62
2023/05/07 06:58:22;;;;;;;8.90;6.43;;;18.30;99.90;;;;;;5027517;28;20190;-62
2023/05/07 07:00:47;;;;;;;6.33;5.83;;;19.00;99.90;;;;;;5024924;28;20213;-62
2023/05/07 07:03:13;;;;;;;5.70;5.20;;;20.10;99.10;;;;;;5023600;28;20186;-62
2023/05/07 07:05:41;;;;;;;6.50;4.63;;;22.30;95.80;;;;;;5026903;28;20988;-63
2023/05/07 07:08:07;;;;;;;6.30;5.70;;;24.40;92.10;;;;;;5054162;23;20229;-86
2023/05/07 07:10:32;;;;;;;6.13;5.70;;;27.00;83.70;;;;;;5014788;28;20878;-85
2023/05/07 07:12:58;;;;;;;8.03;6.57;;;28.00;77.40;;;;;;5016061;28;20689;-86
2023/05/07 07:15:24;;;;;;;5.93;5.50;;;28.60;74.30;;;;;;5015483;28;20178;-86
2023/05/07 07:17:50;;;;;;;5.60;5.20;;;28.80;74.60;;;;;;5014923;28;20200;-85
2023/05/07 07:20:16;;;;;;;5.10;4.70;;;30.00;68.80;;;;;;5038508;28;20478;-85
2023/05/07 07:22:41;;;;;;;4.93;4.53;;;31.10;63.50;;;;;;5015763;28;20480;-86
2023/05/07 07:25:07;;;;;;;5.60;4.77;;;31.90;61.50;;;;;;5018943;28;20235;-85
2023/05/07 07:27:33;;;;;;;5.03;4.33;;;31.20;58.60;;;;;;5016331;28;22096;-84
2023/05/07 07:29:58;;;;;;;5.23;4.73;;;32.20;57.90;;;;;;5016906;28;20441;-84
2023/05/07 07:32:24;;;;;;;5.13;4.73;;;32.00;56.20;;;;;;5012787;28;20225;-84
2023/05/07 07:34:49;;;;;;;5.67;5.27;;;31.40;57.00;;;;;;5025034;28;20186;-87
2023/05/07 07:37:15;;;;;;;5.30;4.90;;;31.40;57.10;;;;;;5017061;28;20549;-84
2023/05/07 07:39:41;;;;;;;5.57;5.10;;;30.50;57.70;;;;;;5031825;28;20199;-83
2023/05/07 07:42:06;;;;;;;4.83;4.43;;;30.70;57.80;;;;;;5034397;28;20202;-85
2023/05/07 07:44:32;;;;;;;4.60;4.30;;;31.50;56.90;;;;;;5000691;28;20186;-84
2023/05/07 07:46:57;;;;;;;5.13;4.37;;;32.80;55.10;;;;;;5020082;28;20182;-84
2023/05/07 07:49:23;;;;;;;4.30;4.00;;;32.30;55.80;;;;;;5034019;28;20716;-85
2023/05/07 07:51:48;;;;;;;4.83;4.33;;;33.70;53.60;;;;;;5031947;28;20242;-83
2023/05/07 07:54:14;;;;;;;5.53;4.90;;;33.90;52.00;;;;;;5032123;28;20178;-85
2023/05/07 07:56:39;;;;;;;5.70;4.20;;;33.00;52.60;;;;;;5015919;28;20186;-84
2023/05/07 07:59:05;;;;;;;4.00;3.60;;;33.50;52.60;;;;;;5022732;28;20225;-83
2023/05/07 08:01:31;;;;;;;4.37;4.07;;;33.10;51.80;;;;;;5034297;28;20289;-84
2023/05/07 08:03:58;;;;;;;4.40;4.10;;;32.50;53.50;;;;;;5023943;28;20174;-85
2023/05/07 08:06:25;;;;;;;4.57;4.20;;;32.10;53.70;;;;;;5014073;28;20189;-85
2023/05/07 08:08:51;;;;;;;3.70;3.40;;;32.40;53.00;;;;;;5022595;28;20440;-84
2023/05/07 08:11:16;;;;;;;4.07;3.67;;;32.70;52.70;;;;;;5017901;28;20459;-84
2023/05/07 08:13:42;;;;;;;3.80;3.60;;;32.90;53.10;;;;;;5040633;28;20182;-83
2023/05/07 08:16:07;;;;;;;3.67;3.37;;;31.70;53.20;;;;;;5025980;28;20232;-83
2023/05/07 08:18:33;;;;;;;3.57;3.20;;;30.40;55.70;;;;;;5022412;28;20190;-83
2023/05/07 08:20:58;;;;;;;3.60;3.30;;;29.60;57.20;;;;;;5022370;28;20218;-83
2023/05/07 08:23:24;;;;;;;3.17;2.97;;;28.60;58.50;;;;;;5023582;28;20185;-83
2023/05/07 08:25:51;;;;;;;3.37;3.17;;;29.40;58.00;;;;;;5023738;28;20245;-82
2023/05/07 08:28:16;;;;;;;3.90;3.60;;;30.60;56.40;;;;;;5035677;28;20181;-83
2023/05/07 08:30:42;;;;;;;3.23;2.80;;;31.80;54.30;;;;;;5019936;28;20445;-83
2023/05/07 08:33:09;;;;;;;3.57;3.27;;;32.40;53.30;;;;;;5016414;28;20244;-83
2023/05/07 08:35:34;;;;;;;3.20;3.00;;;32.60;52.10;;;;;;5027615;28;20194;-83
2023/05/07 08:38:00;;;;;;;3.03;2.80;;;32.30;52.80;;;;;;5020881;28;20559;-83
2023/05/07 08:40:26;;;;;;;3.20;3.00;;;32.30;52.80;;;;;;5037211;28;20260;-83
2023/05/07 08:42:53;;;;;;;3.57;2.93;;;32.40;52.30;;;;;;5020977;28;20233;-83
2023/05/07 08:45:20;;;;;;;3.03;2.83;;;32.00;52.70;;;;;;5033000;28;20449;-84
2023/05/07 08:47:58;;;;;;;3.60;3.30;;;31.80;54.10;;;;;;5034893;28;20451;-84
2023/05/07 08:50:23;;;;;;;3.27;3.07;;;32.70;52.40;;;;;;5021566;28;20827;-85
2023/05/07 08:52:49;;;;;;;4.17;3.43;;;33.50;50.20;;;;;;5016340;28;20464;-83
2023/05/07 08:55:15;;;;;;;3.40;3.20;;;33.80;49.70;;;;;;5018397;28;20271;-83
2023/05/07 08:57:40;;;;;;;3.67;3.37;;;34.40;49.60;;;;;;5019728;28;20190;-83
2023/05/07 09:00:07;;;;;;;5.17;3.33;;;34.40;48.40;;;;;;5019187;28;20655;-83
2023/05/07 09:02:34;;;;;;;3.40;3.10;;;33.60;49.00;;;;;;5018673;28;20206;-83
2023/05/07 09:05:00;;;;;;;2.90;2.70;;;34.40;48.60;;;;;;5035482;28;20456;-83
2023/05/07 09:07:26;;;;;;;3.03;2.83;;;34.10;47.90;;;;;;5020748;28;20460;-83
2023/05/07 09:09:52;;;;;;;3.27;3.07;;;34.70;47.80;;;;;;5021681;28;20190;-82
2023/05/07 09:12:18;;;;;;;3.10;2.90;;;34.30;46.70;;;;;;5023884;28;20461;-82
2023/05/07 09:14:45;;;;;;;3.07;2.77;;;34.80;47.10;;;;;;5024142;28;20581;-83
2023/05/07 09:17:11;;;;;;;3.10;2.90;;;35.20;47.00;;;;;;5020636;28;20459;-82
2023/05/07 09:19:36;;;;;;;3.23;3.03;;;33.90;47.50;;;;;;5027708;28;20469;-82
2023/05/07 09:22:04;;;;;;;2.80;2.60;;;34.60;48.00;;;;;;5037946;28;20197;-82
2023/05/07 09:24:34;;;;;;;2.80;2.57;;;33.10;48.10;;;;;;5027753;28;20249;-82
2023/05/07 09:27:01;;;;;;;3.03;2.83;;;33.00;48.60;;;;;;5022360;28;20456;-82
2023/05/07 09:29:28;;;;;;;3.37;2.67;;;32.20;49.30;;;;;;5019137;28;20445;-82
2023/05/07 09:31:54;;;;;;;2.47;2.37;;;31.90;50.10;;;;;;5027866;28;20526;-83
2023/05/07 09:34:20;;;;;;;2.50;2.30;;;32.00;50.50;;;;;;5019641;28;20444;-82
2023/05/07 09:36:46;;;;;;;2.17;2.07;;;32.40;51.80;;;;;;5023221;28;20445;-83
2023/05/07 09:39:12;;;;;;;3.07;2.40;;;32.30;49.00;;;;;;5040952;28;20213;-84
2023/05/07 09:41:49;;;;;;;3.20;2.50;;;31.90;48.80;;;;;;5021045;28;20506;-85
2023/05/07 09:44:15;;;;;;;2.60;2.40;;;31.40;50.00;;;;;;5022251;28;20813;-87
2023/05/07 09:46:44;;;;;;;2.17;2.03;;;31.10;51.00;;;;;;5037083;28;20449;-84
2023/05/07 09:49:21;;;;;;;2.77;2.57;;;30.50;51.70;;;;;;5022211;28;20187;-86
2023/05/07 09:51:49;;;;;;;2.50;2.30;;;30.40;51.70;;;;;;5017639;28;20519;-86
2023/05/07 09:54:16;;;;;;;2.60;2.40;;;30.40;52.20;;;;;;5055260;28;20422;-85
2023/05/07 09:56:43;;;;;;;3.40;2.33;;;31.30;51.80;;;;;;5028565;28;20450;-85
2023/05/07 09:59:12;;;;;;;2.60;2.30;;;31.90;50.70;;;;;;5023642;28;20965;-85
2023/05/07 10:01:40;;;;;;;2.23;2.13;;;32.50;49.80;;;;;;5027942;28;20474;-85
2023/05/07 10:04:08;;;;;;;3.50;2.60;;;33.70;50.90;;;;;;5018014;28;20476;-85
2023/05/07 10:06:34;;;;;;;2.50;2.30;;;32.10;50.10;;;;;;5034907;28;20586;-85
2023/05/07 10:09:00;;;;;;;2.80;2.60;;;31.70;50.50;;;;;;5018722;28;20974;-85
2023/05/07 10:11:26;;;;;;;2.60;2.40;;;31.40;51.00;;;;;;5034659;28;20470;-85
2023/05/07 10:13:53;;;;;;;3.20;3.00;;;30.60;52.00;;;;;;5035254;28;20532;-85
2023/05/07 10:16:19;;;;;;;2.80;2.60;;;30.20;53.10;;;;;;5035263;28;20184;-85
2023/05/07 10:18:45;;;;;;;4.53;2.67;;;29.20;54.00;;;;;;5022659;28;20485;-84
2023/05/07 10:21:17;;;;;;;2.87;2.67;;;29.70;54.40;;;;;;5029523;28;20999;-85
2023/05/07 10:23:49;;;;;;;3.53;2.60;;;29.70;53.30;;;;;;5043061;28;20502;-85
2023/05/07 10:26:16;;;;;;;2.77;2.57;;;29.70;52.90;;;;;;5019736;28;20474;-85
2023/05/07 10:28:46;;;;;;;3.10;2.90;;;29.40;54.30;;;;;;5030272;28;20440;-86
2023/05/07 10:31:35;;;;;;;3.10;2.90;;;28.80;56.00;;;;;;5029776;28;20995;-85
2023/05/07 10:34:07;;;;;;;2.87;2.70;;;28.70;56.00;;;;;;5022479;28;20441;-85
2023/05/07 10:36:34;;;;;;;3.27;2.97;;;28.70;56.80;;;;;;5033024;28;20477;-85
2023/05/07 10:39:00;;;;;;;6.37;3.43;;;28.80;56.40;;;;;;5019162;28;20435;-85
2023/05/07 10:41:25;;;;;;;3.07;2.87;;;28.80;55.50;;;;;;5026108;28;20514;-85
2023/05/07 10:43:51;;;;;;;4.00;3.30;;;28.90;56.20;;;;;;5047657;28;20190;-85
2023/05/07 10:46:18;;;;;;;3.40;3.10;;;28.90;56.10;;;;;;5019396;28;20248;-85
2023/05/07 10:49:03;;;;;;;3.97;3.60;;;29.20;56.60;;;;;;5019286;28;20189;-85
2023/05/07 10:51:31;;;;;;;3.03;2.83;;;28.90;54.30;;;;;;5031798;28;20475;-86
2023/05/07 10:54:12;;;;;;;3.10;2.90;;;28.90;54.60;;;;;;5017950;28;20476;-85
2023/05/07 10:56:39;;;;;;;5.13;2.60;;;28.60;54.70;;;;;;5039123;28;20450;-85
2023/05/07 10:59:31;;;;;;;3.00;2.70;;;28.50;55.80;;;;;;5022944;28;20436;-86
2023/05/07 11:01:59;;;;;;;3.37;3.10;;;28.70;55.40;;;;;;5018515;28;20467;-85
2023/05/07 11:04:28;;;;;;;3.07;2.87;;;28.40;56.50;;;;;;5024303;28;20490;-85
2023/05/07 11:07:06;;;;;;;5.20;3.00;;;28.60;56.30;;;;;;5029319;28;20918;-85
2023/05/07 11:09:51;;;;;;;3.03;2.80;;;29.00;56.10;;;;;;5037180;28;20435;-85
2023/05/07 11:12:17;;;;;;;3.03;2.73;;;29.00;56.90;;;;;;5033728;28;20464;-86
2023/05/07 11:14:43;;;;;;;3.30;3.03;;;28.70;57.30;;;;;;5036161;28;20476;-85
2023/05/07 11:17:10;;;;;;;3.53;3.33;;;28.00;58.00;;;;;;5032998;28;20452;-85
2023/05/07 11:19:53;;;;;;;5.30;2.60;;;27.90;58.50;;;;;;5019202;28;20467;-85
2023/05/07 11:22:31;;;;;;;4.00;3.63;;;27.50;58.50;;;;;;5036520;28;20485;-85
2023/05/07 11:25:00;;;;;;;3.43;3.03;;;27.50;59.50;;;;;;5037433;28;20438;-85
2023/05/07 11:27:26;;;;;;;3.40;3.10;;;27.50;58.70;;;;;;5022502;28;20510;-85
2023/05/07 11:29:52;;;;;;;2.63;2.47;;;27.40;58.70;;;;;;5032581;28;20501;-85
2023/05/07 11:32:29;;;;;;;3.10;2.60;;;27.10;57.40;;;;;;5033922;28;20494;-86
2023/05/07 11:34:55;;;;;;;3.20;2.87;;;27.10;57.00;;;;;;5036084;28;20196;-85
2023/05/07 11:37:22;;;;;;;3.93;2.50;;;26.90;56.30;;;;;;5035325;28;20541;-85
2023/05/07 11:39:48;;;;;;;3.60;2.40;;;26.80;57.10;;;;;;5019453;28;20464;-85
2023/05/07 11:42:34;;;;;;;3.17;2.97;;;26.90;56.30;;;;;;5021803;28;20531;-84
2023/05/07 11:45:00;;;;;;;2.43;2.33;;;26.90;56.70;;;;;;5017118;28;20452;-85
2023/05/07 11:47:29;;;;;;;2.83;2.50;;;26.80;57.20;;;;;;5015615;28;20467;-85
2023/05/07 11:49:55;;;;;;;3.33;3.10;;;27.10;58.10;;;;;;5021096;28;21008;-85
2023/05/07 11:52:22;;;;;;;3.60;3.20;;;26.50;57.70;;;;;;5032093;28;20460;-85
2023/05/07 11:54:55;;;;;;;2.80;2.60;;;26.60;58.40;;;;;;5014675;28;20182;-85
2023/05/07 11:57:22;;;;;;;4.13;3.83;;;25.90;58.60;;;;;;5028539;28;20448;-82
2023/05/07 11:59:48;;;;;;;3.63;3.30;;;25.80;59.70;;;;;;5028710;28;20456;-82
2023/05/07 12:02:15;;;;;;;3.00;2.80;;;25.70;60.40;;;;;;5008082;28;20482;-83
2023/05/07 12:04:41;;;;;;;3.27;2.97;;;25.40;62.00;;;;;;5026971;28;20482;-82
2023/05/07 12:07:14;;;;;;;4.10;3.37;;;25.50;63.60;;;;;;5034314;28;20467;-82
2023/05/07 12:09:41;;;;;;;3.80;3.50;;;25.10;65.70;;;;;;5026825;28;20177;-82
2023/05/07 12:12:07;;;;;;;4.33;3.93;;;25.00;69.80;;;;;;5044180;28;20474;-82
2023/05/07 12:14:32;;;;;;;4.07;3.23;;;24.80;73.50;;;;;;5033502;28;20468;-82
2023/05/07 12:17:01;;;;;;;4.10;3.80;;;24.50;74.40;;;;;;5029480;28;20238;-82
2023/05/07 12:19:29;;;;;;;3.03;2.63;;;24.10;78.50;;;;;;5031722;28;20219;-82
2023/05/07 12:21:56;;;;;;;1.83;1.73;;;23.80;76.20;;;;;;5031719;28;20472;-82
2023/05/07 12:24:21;;;;;;;3.07;2.13;;;23.70;70.70;;;;;;5040603;28;20464;-82
2023/05/07 12:26:47;;;;;;;3.77;2.13;;;23.70;74.00;;;;;;5053999;28;20471;-81
2023/05/07 12:29:13;;;;;;;3.23;2.40;;;23.10;79.90;;;;;;5037556;28;20190;-82
2023/05/07 12:31:41;;;;;;;4.23;3.23;;;22.40;87.10;;;;;;5034260;28;20538;-82
2023/05/07 12:34:06;;;;;;;6.83;4.43;;;21.80;92.50;;;;;;5029547;28;20212;-82
2023/05/07 12:36:39;;;;;;;8.37;4.40;;;22.70;97.30;;;;;;5027294;28;20958;-82
2023/05/07 12:39:06;;;;;;;11.18;5.45;;;21.10;99.90;;;;;;5045689;28;20287;-82
2023/05/07 12:41:51;;;;;;;10.82;5.45;;;20.60;99.90;;;;;;5044154;28;20213;-81
2023/05/07 12:44:17;;;;;;;6.85;3.20;;;20.50;99.90;;;;;;5043860;28;20175;-82
2023/05/07 12:46:42;;;;;;;3.00;2.53;;;19.10;99.90;;;;;;5028108;28;20178;-82